Time;durP1;ratioP1;P1;durP2;ratioP2;P2;SDS_P1;SDS_P2;PMS_P1;PMS_P2;Temp;Humidity;BMP_temperature;BMP_pressure;BME280_temperature;BME280_humidity;BME280_pressure;Samples;Min_cycle;Max_cycle;Signal;HPM_P1;HPM_P2
2021/12/08 00:00:17;;;;;;;1.50;1.27;;;;;;;5.58;100.00;99025.13;4988006;28;20101;-54
2021/12/08 00:02:44;;;;;;;1.13;0.95;;;;;;;5.57;100.00;99032.97;4984929;28;20610;-54
2021/12/08 00:05:11;;;;;;;2.47;1.65;;;;;;;5.60;100.00;99012.16;4991979;28;20092;-55
2021/12/08 00:07:37;;;;;;;1.38;1.30;;;;;;;5.58;100.00;99009.59;4978079;28;20026;-56
2021/12/08 00:10:15;;;;;;;1.50;1.30;;;;;;;5.56;100.00;99008.78;4976811;28;20026;-56
2021/12/08 00:13:05;;;;;;;3.45;1.05;;;;;;;5.60;100.00;99012.16;4981013;28;20030;-54
2021/12/08 00:15:32;;;;;;;1.00;0.90;;;;;;;5.66;100.00;99020.69;4970160;28;20025;-56
2021/12/08 00:17:58;;;;;;;1.17;0.60;;;;;;;5.73;100.00;99012.81;4975847;28;20037;-55
2021/12/08 00:20:27;;;;;;;1.13;1.00;;;;;;;5.71;100.00;99025.78;4988608;28;20014;-53
2021/12/08 00:22:53;;;;;;;0.95;0.88;;;;;;;5.78;100.00;99022.19;4983148;28;20125;-55
2021/12/08 00:25:18;;;;;;;3.65;1.20;;;;;;;5.82;100.00;99023.84;4980450;28;20121;-54
2021/12/08 00:27:44;;;;;;;1.13;1.02;;;;;;;5.84;100.00;99029.88;4989999;28;20481;-55
2021/12/08 00:30:10;;;;;;;6.65;1.17;;;;;;;5.82;100.00;99023.84;4982695;28;20049;-56
2021/12/08 00:32:36;;;;;;;1.20;1.10;;;;;;;5.91;100.00;99033.22;4989214;28;20057;-52
2021/12/08 00:35:04;;;;;;;0.68;0.63;;;;;;;5.94;100.00;99027.97;4986553;28;20018;-53
2021/12/08 00:37:30;;;;;;;1.70;1.48;;;;;;;5.96;100.00;99028.81;4985796;28;20073;-52
2021/12/08 00:39:56;;;;;;;5.18;1.27;;;;;;;5.95;100.00;99019.34;4983952;28;20018;-53
2021/12/08 00:42:21;;;;;;;3.17;1.67;;;;;;;6.03;100.00;99038.19;4989229;28;22965;-53
2021/12/08 00:44:47;;;;;;;2.05;1.88;;;;;;;5.97;100.00;99039.16;4988003;28;20025;-53
2021/12/08 00:47:13;;;;;;;3.30;2.05;;;;;;;5.97;100.00;99031.38;4981998;28;20026;-53
2021/12/08 00:49:39;;;;;;;1.98;1.40;;;;;;;6.03;100.00;99038.19;4994169;28;20037;-54
2021/12/08 00:52:06;;;;;;;3.58;1.25;;;;;;;6.06;100.00;99045.91;4985771;28;20022;-53
2021/12/08 00:54:32;;;;;;;1.45;1.38;;;;;;;6.10;100.00;99050.16;4987631;28;20034;-56
2021/12/08 00:56:57;;;;;;;1.05;0.93;;;;;;;6.13;100.00;99065.69;4983468;28;20022;-53
2021/12/08 00:59:23;;;;;;;1.42;1.05;;;;;;;6.15;100.00;99063.88;4983980;28;20038;-53
2021/12/08 01:01:49;;;;;;;2.85;1.48;;;;;;;6.10;100.00;99051.00;4987870;28;20044;-54
2021/12/08 01:04:15;;;;;;;2.40;1.15;;;;;;;6.19;100.00;99070.72;4989640;28;20021;-54
2021/12/08 01:06:41;;;;;;;1.85;1.42;;;;;;;6.20;100.00;99062.06;4987278;28;20041;-52
2021/12/08 01:09:07;;;;;;;1.63;1.35;;;;;;;6.21;100.00;99074.13;4991253;28;20358;-52
2021/12/08 01:11:33;;;;;;;2.55;1.73;;;;;;;6.20;100.00;99077.63;4993405;28;20021;-54
2021/12/08 01:13:58;;;;;;;2.90;2.00;;;;;;;6.22;100.00;99091.41;4993259;28;20013;-53
2021/12/08 01:16:24;;;;;;;2.90;1.83;;;;;;;6.24;100.00;99079.28;4996196;28;20133;-55
2021/12/08 01:18:50;;;;;;;6.70;3.33;;;;;;;6.26;100.00;99077.50;4997796;28;20025;-56
2021/12/08 01:21:17;;;;;;;3.35;1.83;;;;;;;6.30;100.00;99073.97;4997841;28;20035;-53
2021/12/08 01:23:44;;;;;;;7.00;1.85;;;;;;;6.30;100.00;99073.97;4997625;28;20034;-53
2021/12/08 01:26:10;;;;;;;4.38;2.08;;;;;;;6.29;100.00;99059.28;4997521;28;20547;-54
2021/12/08 01:28:35;;;;;;;8.45;2.72;;;;;;;6.19;100.00;99060.34;4997167;28;20054;-54
2021/12/08 01:31:04;;;;;;;2.97;2.30;;;;;;;6.17;100.00;99051.72;4997449;28;20469;-54
2021/12/08 01:33:32;;;;;;;1.77;1.52;;;;;;;6.17;100.00;99062.09;4997519;28;20026;-56
2021/12/08 01:35:58;;;;;;;1.30;1.20;;;;;;;6.08;100.00;99057.13;4997508;28;20050;-54
2021/12/08 01:38:24;;;;;;;6.30;2.28;;;;;;;6.16;100.00;99086.34;4997158;28;20458;-55
2021/12/08 01:40:51;;;;;;;3.42;2.10;;;;;;;6.14;100.00;99083.78;4997433;28;20057;-55
2021/12/08 01:43:28;;;;;;;3.20;2.10;;;;;;;6.19;100.00;99101.84;4996552;28;20104;-55
2021/12/08 01:46:06;;;;;;;6.32;1.98;;;;;;;6.21;100.00;99107.84;4997261;28;20030;-56
2021/12/08 01:48:38;;;;;;;9.93;1.95;;;;;;;6.25;100.00;99101.72;4996846;28;20030;-54
2021/12/08 01:51:12;;;;;;;2.20;1.77;;;;;;;6.29;100.00;99113.75;4997229;28;20377;-54
2021/12/08 01:53:43;;;;;;;0.88;0.80;;;;;;;6.30;100.00;99131.03;4997269;28;20057;-53
2021/12/08 01:56:12;;;;;;;9.43;1.00;;;;;;;6.33;100.00;99105.03;4997200;28;20528;-56
2021/12/08 01:58:38;;;;;;;8.65;0.93;;;;;;;6.36;100.00;99115.38;4996836;28;20475;-55
2021/12/08 02:01:07;;;;;;;2.28;1.65;;;;;;;6.38;100.00;99118.78;4996939;28;20030;-55
2021/12/08 02:03:33;;;;;;;7.35;2.25;;;;;;;6.38;100.00;99123.97;4996994;28;20062;-55
2021/12/08 02:05:59;;;;;;;8.85;2.35;;;;;;;6.43;100.00;99132.53;4996793;28;20022;-55
2021/12/08 02:08:26;;;;;;;3.13;1.63;;;;;;;6.44;100.00;99123.88;4996559;28;20076;-53
2021/12/08 02:10:52;;;;;;;1.30;1.20;;;;;;;6.44;100.00;99134.25;4996697;28;20029;-53
2021/12/08 02:13:18;;;;;;;1.30;0.93;;;;;;;6.48;100.00;99130.69;4996829;28;20038;-53
2021/12/08 02:15:45;;;;;;;8.77;1.13;;;;;;;6.50;100.00;99139.28;4996532;28;20037;-52
2021/12/08 02:18:14;;;;;;;3.30;2.15;;;;;;;6.50;100.00;99130.66;4996465;28;20125;-54
2021/12/08 02:20:40;;;;;;;1.38;1.05;;;;;;;6.52;100.00;99121.97;4996696;28;20022;-55
2021/12/08 02:23:06;;;;;;;4.25;1.02;;;;;;;6.52;100.00;99129.75;4996487;28;20370;-53
2021/12/08 02:25:31;;;;;;;1.98;1.42;;;;;;;6.53;100.00;99134.03;4996564;28;20037;-56
2021/12/08 02:27:59;;;;;;;1.60;1.38;;;;;;;6.53;100.00;99144.41;4996211;28;20022;-55
2021/12/08 02:30:36;;;;;;;;;;;;;;;;;;;;;
2021/12/08 02:49:09;;;;;;;4.57;1.08;;;;;;;6.29;100.00;99129.31;4996091;28;20034;-53
2021/12/08 02:51:36;;;;;;;4.18;1.40;;;;;;;6.26;100.00;99160.50;4996020;28;20109;-56
2021/12/08 02:54:02;;;;;;;0.95;0.65;;;;;;;6.19;100.00;99163.22;4995915;28;20027;-56
2021/12/08 02:56:28;;;;;;;1.90;1.15;;;;;;;6.12;100.00;99147.78;4994811;28;20023;-53
2021/12/08 02:58:53;;;;;;;3.72;0.77;;;;;;;6.12;100.00;99146.94;4995517;28;20018;-55
2021/12/08 03:01:18;;;;;;;1.63;1.20;;;;;;;6.07;100.00;99140.97;4995707;28;20033;-53
2021/12/08 03:03:44;;;;;;;2.50;0.73;;;;;;;6.01;100.00;99143.66;4995704;28;20084;-53
2021/12/08 03:06:11;;;;;;;1.88;1.55;;;;;;;5.94;100.00;99152.41;4995757;28;20032;-56
2021/12/08 03:08:37;;;;;;;6.75;1.60;;;;;;;5.88;100.00;99149.94;4995267;28;20026;-53
2021/12/08 03:11:02;;;;;;;2.15;1.40;;;;;;;5.80;100.00;99149.16;4995637;28;20034;-55
2021/12/08 03:13:37;;;;;;;4.80;1.85;;;;;;;5.83;100.00;99154.28;4995724;28;20033;-55
2021/12/08 03:16:04;;;;;;;1.67;1.38;;;;;;;5.76;100.00;99168.22;4997473;28;20050;-53
2021/12/08 03:18:35;;;;;;;1.52;0.80;;;;;;;5.72;100.00;99156.19;4995308;28;20030;-52
2021/12/08 03:21:03;;;;;;;0.85;0.85;;;;;;;5.62;100.00;99145.97;4995965;28;20018;-52
2021/12/08 03:23:36;;;;;;;3.58;1.55;;;;;;;5.55;100.00;99149.53;4995764;28;20030;-53
2021/12/08 03:26:04;;;;;;;1.23;1.13;;;;;;;5.47;100.00;99156.56;4995472;28;20033;-55
2021/12/08 03:28:34;;;;;;;1.88;1.17;;;;;;;5.51;100.00;99142.69;4995167;28;20377;-52
2021/12/08 03:33:28;;;;;;;9.30;1.23;;;;;;;5.44;100.00;99146.25;4995174;28;20034;-53
2021/12/08 03:35:55;;;;;;;1.27;0.70;;;;;;;5.40;100.00;99164.44;4995293;28;20041;-55
2021/12/08 03:38:21;;;;;;;3.53;1.05;;;;;;;5.34;100.00;99155.03;4994876;28;20037;-55
2021/12/08 03:40:48;;;;;;;8.93;1.10;;;;;;;5.31;100.00;99160.25;4995106;28;20031;-54
2021/12/08 03:43:14;;;;;;;1.50;1.35;;;;;;;5.28;100.00;99174.97;4995023;28;20030;-53
2021/12/08 03:45:45;;;;;;;0.43;0.43;;;;;;;5.21;100.00;99169.88;4995153;28;20049;-53
2021/12/08 03:48:13;;;;;;;;;;;;;;;5.15;100.00;99174.28;4995159;28;20037;-53
2021/12/08 03:50:41;;;;;;;3.22;1.20;;;;;;;5.14;100.00;99193.25;4995003;28;19920;-54
2021/12/08 03:53:08;;;;;;;5.53;1.05;;;;;;;5.09;100.00;99187.31;4994950;28;20409;-53
2021/12/08 03:55:33;;;;;;;5.20;1.23;;;;;;;5.09;100.00;99187.31;4994847;28;20536;-52
2021/12/08 03:57:59;;;;;;;0.60;0.60;;;;;;;5.00;100.00;99184.84;4994659;28;20022;-53
2021/12/08 04:00:29;;;;;;;0.88;0.85;;;;;;;4.96;100.00;99190.91;4994886;28;20496;-53
2021/12/08 04:02:56;;;;;;;1.35;1.05;;;;;;;4.91;100.00;99190.09;4994856;28;20436;-54
2021/12/08 04:05:31;;;;;;;2.80;1.00;;;;;;;4.86;100.00;99197.06;4994801;28;20434;-53
2021/12/08 04:08:03;;;;;;;1.90;0.93;;;;;;;4.83;100.00;99186.75;4994153;28;20022;-56
2021/12/08 04:10:29;;;;;;;3.90;1.23;;;;;;;4.81;100.00;99193.69;4994603;28;20022;-54
2021/12/08 04:12:55;;;;;;;0.82;0.80;;;;;;;4.80;100.00;99202.31;4994656;28;20030;-54
2021/12/08 04:15:25;;;;;;;0.95;0.55;;;;;;;4.77;100.00;99189.44;4994699;28;20031;-54
2021/12/08 04:17:53;;;;;;;0.80;0.80;;;;;;;4.73;100.00;99191.19;4994201;28;20065;-53
2021/12/08 04:20:29;;;;;;;1.77;0.88;;;;;;;4.65;100.00;99185.25;4994454;28;20277;-53
2021/12/08 04:22:57;;;;;;;7.82;1.33;;;;;;;4.67;100.00;99186.94;4994510;28;20031;-53
2021/12/08 04:25:29;;;;;;;3.88;1.15;;;;;;;4.65;100.00;99199.03;4994479;28;20027;-54
2021/12/08 04:27:58;;;;;;;3.17;0.80;;;;;;;4.66;100.00;99205.91;4994197;28;20034;-56
2021/12/08 04:30:35;;;;;;;3.35;1.13;;;;;;;4.63;100.00;99223.19;4994311;28;20208;-53
2021/12/08 04:33:00;;;;;;;3.22;0.80;;;;;;;4.59;100.00;99224.97;4994377;28;20031;-54
2021/12/08 04:35:28;;;;;;;4.65;1.08;;;;;;;4.62;100.00;99224.06;4994571;28;20023;-55
2021/12/08 04:37:57;;;;;;;1.70;0.95;;;;;;;4.62;100.00;99227.50;4994120;28;20540;-56
2021/12/08 04:43:07;;;;;;;3.60;0.85;;;;;;;4.52;100.00;99232.78;4994396;28;20048;-56
2021/12/08 04:45:49;;;;;;;0.52;0.40;;;;;;;4.45;100.00;99221.66;4994475;28;20027;-56
2021/12/08 04:48:52;;;;;;;3.13;0.90;;;;;;;4.43;100.00;99228.56;4994117;28;20026;-52
2021/12/08 05:02:15;;;;;;;23.83;1.17;;;;;;;4.30;100.00;99237.28;4953550;29;20106;-56
2021/12/08 05:05:04;;;;;;;2.78;1.35;;;;;;;4.20;100.00;99220.16;4965355;28;20129;-54
2021/12/08 05:07:46;;;;;;;;;;;;;;;;;;;;;
2021/12/08 05:09:59;;;;;;;0.73;0.73;;;;;;;4.25;100.00;99223.56;4994153;28;20034;-55
2021/12/08 05:12:31;;;;;;;3.03;0.85;;;;;;;4.26;100.00;99220.94;4994164;28;20026;-55
2021/12/08 05:15:09;;;;;;;2.97;1.40;;;;;;;4.26;100.00;99233.00;4994141;28;20030;-53
2021/12/08 05:17:51;;;;;;;4.78;1.10;;;;;;;4.22;100.00;99239.06;4993705;28;20180;-56
2021/12/08 05:20:29;;;;;;;1.85;0.70;;;;;;;4.29;100.00;99239.91;4997219;28;20034;-54
2021/12/08 05:23:00;;;;;;;7.40;1.20;;;;;;;4.33;100.00;99252.81;4997666;28;20482;-53
2021/12/08 05:25:29;;;;;;;3.13;1.58;;;;;;;4.31;100.00;99254.53;4997535;28;20477;-54
2021/12/08 05:27:58;;;;;;;0.43;0.43;;;;;;;4.35;100.00;99253.63;4997240;28;20046;-53
2021/12/08 05:30:45;;;;;;;1.33;1.08;;;;;;;4.34;100.00;99249.31;4997427;28;20030;-54
2021/12/08 05:33:12;;;;;;;3.20;1.17;;;;;;;4.32;100.00;99245.91;4997451;28;20112;-56
2021/12/08 05:35:39;;;;;;;9.88;1.55;;;;;;;4.34;100.00;99240.72;4997574;28;20081;-53
2021/12/08 05:38:04;;;;;;;6.47;1.27;;;;;;;4.38;100.00;99251.00;4997252;28;20045;-54
2021/12/08 05:40:36;;;;;;;3.05;1.17;;;;;;;4.43;100.00;99253.56;4997453;28;20023;-55
2021/12/08 05:43:02;;;;;;;8.95;2.22;;;;;;;4.43;100.00;99269.94;4997436;28;20034;-56
2021/12/08 05:45:28;;;;;;;3.20;1.52;;;;;;;4.33;100.00;99252.81;4997336;28;20030;-56
2021/12/08 05:47:56;;;;;;;1.40;1.08;;;;;;;4.40;100.00;99267.38;4996920;28;20026;-56
2021/12/08 05:50:38;;;;;;;2.28;1.75;;;;;;;4.38;100.00;99263.94;4996992;28;20022;-54
2021/12/08 05:53:04;;;;;;;3.38;2.03;;;;;;;4.36;100.00;99283.78;4997226;28;20039;-56
2021/12/08 05:55:31;;;;;;;7.07;1.73;;;;;;;4.30;100.00;99289.00;4997001;28;20421;-54
2021/12/08 05:57:58;;;;;;;9.93;1.35;;;;;;;4.22;100.00;99285.59;4996731;28;20026;-55
2021/12/08 06:00:35;;;;;;;4.38;1.05;;;;;;;4.23;100.00;99282.16;4997005;28;20450;-53
2021/12/08 06:03:01;;;;;;;4.78;1.50;;;;;;;4.17;100.00;99282.22;4997004;28;20026;-53
2021/12/08 06:05:29;;;;;;;4.05;1.88;;;;;;;4.18;100.00;99278.78;4996767;28;20042;-54
2021/12/08 06:07:55;;;;;;;2.90;1.25;;;;;;;4.19;100.00;99280.47;4996586;28;20405;-53
2021/12/08 06:10:25;;;;;;;3.13;1.33;;;;;;;4.17;100.00;99287.41;4995876;28;20026;-55
2021/12/08 06:12:51;;;;;;;10.20;2.00;;;;;;;4.24;100.00;99294.22;4995239;28;20096;-56
2021/12/08 06:15:18;;;;;;;1.60;1.30;;;;;;;4.29;100.00;99292.47;4996409;28;20429;-53
2021/12/08 06:17:44;;;;;;;9.05;2.08;;;;;;;4.24;100.00;99289.91;4995758;28;20058;-56
2021/12/08 06:20:12;;;;;;;3.33;0.95;;;;;;;4.24;100.00;99297.69;4996717;28;20465;-54
2021/12/08 06:22:39;;;;;;;6.20;1.15;;;;;;;4.24;100.00;99302.00;4996782;28;20100;-53
2021/12/08 06:25:06;;;;;;;4.40;1.17;;;;;;;4.31;100.00;99301.06;4996483;28;20088;-56
2021/12/08 06:27:31;;;;;;;7.05;1.55;;;;;;;4.36;100.00;99301.91;4996195;28;20030;-54
2021/12/08 06:29:57;;;;;;;4.03;1.40;;;;;;;4.43;100.00;99316.47;4995527;28;20027;-54
2021/12/08 06:32:22;;;;;;;3.63;1.77;;;;;;;4.50;100.00;99312.97;4993573;28;20057;-53
2021/12/08 06:34:52;;;;;;;5.07;1.50;;;;;;;4.58;100.00;99316.34;4993523;28;20378;-57
2021/12/08 06:37:23;;;;;;;9.63;1.90;;;;;;;4.60;100.00;99317.22;4985881;28;20038;-55
2021/12/08 06:39:55;;;;;;;1.48;1.20;;;;;;;4.64;100.00;99315.44;4993169;28;20026;-57
2021/12/08 06:42:23;;;;;;;0.50;0.50;;;;;;;4.64;100.00;99331.84;4994300;28;22084;-59
2021/12/08 06:44:52;;;;;;;7.35;0.90;;;;;;;4.65;100.00;99320.63;4994415;28;20042;-55
2021/12/08 06:47:20;;;;;;;5.07;1.58;;;;;;;4.67;100.00;99321.44;4982681;28;20033;-54
2021/12/08 06:49:48;;;;;;;2.17;1.35;;;;;;;4.68;100.00;99318.00;4987892;28;20153;-58
2021/12/08 06:52:20;;;;;;;1.83;1.15;;;;;;;4.65;100.00;99323.22;4987071;28;20026;-57
2021/12/08 06:54:51;;;;;;;1.35;0.57;;;;;;;4.62;100.00;99318.03;4986909;28;20038;-54
2021/12/08 06:57:22;;;;;;;0.80;0.75;;;;;;;4.55;100.00;99326.72;4983658;28;20180;-57
2021/12/08 06:59:57;;;;;;;1.77;0.98;;;;;;;4.46;100.00;99326.78;4979578;28;20038;-58
2021/12/08 07:03:21;;;;;;;6.82;1.27;;;;;;;4.47;100.00;99332.81;4976626;28;20041;-57
2021/12/08 07:05:30;;;;;;;4.97;1.48;;;;;;;4.44;100.00;99343.22;4959918;28;20046;-60
2021/12/08 07:08:04;;;;;;;3.92;1.33;;;;;;;4.44;100.00;99338.91;4946180;28;20076;-56
2021/12/08 07:10:35;;;;;;;4.22;1.27;;;;;;;4.47;100.00;99344.03;4959113;28;20604;-57
2021/12/08 07:13:05;;;;;;;1.25;0.93;;;;;;;4.48;100.00;99356.09;4937084;28;20026;-56
2021/12/08 07:15:37;;;;;;;;;;;;;;;4.45;100.00;99366.47;4903957;28;20034;-58
2021/12/08 07:18:21;;;;;;;0.65;0.65;;;;;;;4.44;100.00;99359.59;4871837;28;19957;-59
2021/12/08 07:20:55;;;;;;;2.90;1.25;;;;;;;4.45;100.00;99365.63;4818735;28;20750;-57
2021/12/08 07:23:36;;;;;;;8.40;2.05;;;;;;;4.38;100.00;99364.78;4756646;28;21352;-60
2021/12/08 07:26:08;;;;;;;7.82;1.17;;;;;;;4.36;100.00;99371.72;4677195;28;20794;-58
2021/12/08 07:28:34;;;;;;;8.75;1.23;;;;;;;4.35;100.00;99375.16;4584995;28;21364;-60
2021/12/08 07:31:06;;;;;;;2.55;1.70;;;;;;;4.32;100.00;99382.94;4654817;28;20031;-58
2021/12/08 07:33:32;;;;;;;1.05;1.02;;;;;;;4.28;100.00;99377.78;4563790;28;20041;-58
2021/12/08 07:36:03;;;;;;;1.35;1.00;;;;;;;4.26;100.00;99381.22;4639251;28;20797;-58
2021/12/08 07:38:31;;;;;;;1.38;1.27;;;;;;;4.23;100.00;99368.34;4726017;28;20030;-56
2021/12/08 07:41:02;;;;;;;4.07;1.15;;;;;;;4.37;100.00;99382.91;4742817;28;22702;-56
2021/12/08 07:43:29;;;;;;;1.40;0.90;;;;;;;4.34;100.00;99386.34;4775417;28;22436;-58
2021/12/08 07:46:03;;;;;;;4.88;1.02;;;;;;;4.41;100.00;99395.81;4776293;28;20137;-57
2021/12/08 07:48:34;;;;;;;0.80;0.70;;;;;;;4.46;100.00;99398.38;4799962;28;21564;-58
2021/12/08 07:51:10;;;;;;;1.05;0.82;;;;;;;4.46;100.00;99394.03;4792190;28;20070;-58
2021/12/08 07:53:36;;;;;;;6.15;1.20;;;;;;;4.47;100.00;99384.56;4787265;28;20043;-57
2021/12/08 07:56:05;;;;;;;4.07;1.45;;;;;;;4.55;100.00;99399.16;4721913;28;21206;-59
2021/12/08 07:58:33;;;;;;;7.28;0.98;;;;;;;4.54;100.00;99392.25;4750073;28;20153;-59
2021/12/08 08:01:07;;;;;;;3.30;0.77;;;;;;;4.60;100.00;99397.41;4703544;28;20034;-58
2021/12/08 08:03:33;;;;;;;2.90;1.02;;;;;;;4.66;100.00;99392.16;4666857;28;20034;-59
2021/12/08 08:06:02;;;;;;;1.95;1.33;;;;;;;4.68;100.00;99394.75;4571964;28;20372;-58
2021/12/08 08:08:31;;;;;;;1.30;1.17;;;;;;;4.68;100.00;99395.63;4412162;28;20710;-57
2021/12/08 08:11:05;;;;;;;6.57;1.05;;;;;;;4.73;100.00;99399.03;4326403;28;21874;-59
2021/12/08 08:13:31;;;;;;;5.60;1.80;;;;;;;4.76;100.00;99390.38;4438364;28;21409;-59
2021/12/08 08:16:05;;;;;;;3.72;1.10;;;;;;;4.77;100.00;99388.66;4451837;28;22358;-58
2021/12/08 08:18:33;;;;;;;1.70;0.98;;;;;;;4.77;100.00;99388.66;4613438;28;20062;-57
2021/12/08 08:21:02;;;;;;;2.05;0.88;;;;;;;4.81;100.00;99385.16;4620580;28;20033;-55
2021/12/08 08:23:31;;;;;;;1.65;1.05;;;;;;;4.84;100.00;99393.75;4577658;28;20730;-58
2021/12/08 08:25:57;;;;;;;2.45;0.55;;;;;;;4.87;100.00;99390.28;4596335;28;20096;-56
2021/12/08 08:28:23;;;;;;;2.95;0.68;;;;;;;4.89;100.00;99397.19;4624286;28;20037;-58
2021/12/08 08:31:10;;;;;;;1.42;1.05;;;;;;;4.91;100.00;99398.00;4608610;28;20738;-59
2021/12/08 08:33:39;;;;;;;0.73;0.70;;;;;;;4.98;100.00;99398.81;4650178;28;20549;-57
2021/12/08 08:36:09;;;;;;;0.60;0.55;;;;;;;5.00;100.00;99394.50;4561332;28;20039;-56
2021/12/08 08:38:55;;;;;;;2.10;1.05;;;;;;;5.02;100.00;99395.31;4636746;28;20176;-57
2021/12/08 08:41:29;;;;;;;0.95;0.88;;;;;;;5.04;100.00;99393.59;4638058;28;21579;-66
2021/12/08 08:43:58;;;;;;;1.10;0.73;;;;;;;5.07;100.00;99390.97;4637368;28;20553;-56
2021/12/08 08:46:33;;;;;;;0.93;0.93;;;;;;;5.07;100.00;99393.56;4596958;28;20720;-57
2021/12/08 08:49:06;;;;;;;5.38;1.40;;;;;;;5.12;100.00;99407.31;4544560;28;24179;-57
2021/12/08 08:51:34;;;;;;;1.15;0.98;;;;;;;5.12;100.00;99397.81;4517004;28;20110;-59
2021/12/08 08:54:06;;;;;;;5.45;1.25;;;;;;;5.08;100.00;99384.91;4589419;28;22288;-56
2021/12/08 08:56:36;;;;;;;0.73;0.52;;;;;;;5.14;100.00;99405.56;4575963;28;22175;-59
2021/12/08 08:59:04;;;;;;;;;;;;;;;5.16;100.00;99398.66;4652078;28;20992;-56
2021/12/08 09:01:44;;;;;;;5.88;0.98;;;;;;;5.17;100.00;99405.56;4646739;28;22168;-57
2021/12/08 09:04:21;;;;;;;1.10;0.88;;;;;;;5.22;100.00;99409.81;4665211;28;20090;-59
2021/12/08 09:06:50;;;;;;;3.10;0.85;;;;;;;5.20;100.00;99400.34;4606564;28;23899;-59
2021/12/08 09:09:20;;;;;;;5.10;0.88;;;;;;;5.20;100.00;99401.19;4494207;28;22184;-58
2021/12/08 09:12:01;;;;;;;1.23;1.13;;;;;;;5.24;100.00;99407.22;4437781;28;23912;-58
2021/12/08 09:14:33;;;;;;;10.45;1.80;;;;;;;5.21;100.00;99386.53;4474411;28;21847;-58
2021/12/08 09:17:04;;;;;;;4.38;0.98;;;;;;;5.27;100.00;99402.00;4577589;28;20715;-58
2021/12/08 09:19:36;;;;;;;0.70;0.70;;;;;;;5.32;100.00;99400.22;4590153;28;20986;-57
2021/12/08 09:22:11;;;;;;;0.30;0.30;;;;;;;5.31;100.00;99403.69;4554435;28;20039;-58
2021/12/08 09:24:44;;;;;;;0.52;0.50;;;;;;;5.39;100.00;99411.38;4546364;28;20045;-57
2021/12/08 09:27:11;;;;;;;0.40;0.40;;;;;;;5.31;100.00;99403.69;4578167;28;21771;-57
2021/12/08 09:29:44;;;;;;;1.17;1.08;;;;;;;5.50;100.00;99425.91;4637345;28;20567;-59
2021/12/08 09:32:17;;;;;;;2.10;0.88;;;;;;;5.44;100.00;99410.47;4635415;28;21144;-58
2021/12/08 09:34:55;;;;;;;2.30;1.55;;;;;;;5.53;100.00;99425.06;4588560;28;20952;-56
2021/12/08 09:37:25;;;;;;;0.70;0.70;;;;;;;5.44;100.00;99420.81;4582022;28;21135;-58
2021/12/08 09:40:07;;;;;;;0.82;0.82;;;;;;;5.57;100.00;99448.28;4611816;28;20085;-58
2021/12/08 09:42:43;;;;;;;0.50;0.50;;;;;;;5.51;100.00;99426.78;4655071;28;20046;-59
2021/12/08 09:45:22;;;;;;;0.47;0.47;;;;;;;5.55;100.00;99455.22;4694174;28;23570;-58
2021/12/08 09:47:48;;;;;;;2.22;1.27;;;;;;;5.47;100.00;99436.31;4546403;28;20693;-56
2021/12/08 09:50:15;;;;;;;0.90;0.70;;;;;;;5.56;100.00;99446.59;4359970;28;22066;-56
2021/12/08 09:52:42;;;;;;;5.90;0.47;;;;;;;5.66;100.00;99452.53;4398739;28;21876;-60
2021/12/08 09:55:15;;;;;;;0.95;0.88;;;;;;;5.62;100.00;99446.53;4393086;28;20046;-57
2021/12/08 09:57:48;;;;;;;2.50;0.47;;;;;;;5.58;100.00;99443.97;4487734;28;25459;-56
2021/12/08 10:00:23;;;;;;;0.63;0.47;;;;;;;5.73;100.00;99458.53;4530239;28;22449;-58
2021/12/08 10:02:53;;;;;;;1.15;0.98;;;;;;;5.79;100.00;99455.84;4612456;28;21286;-57
2021/12/08 10:05:19;;;;;;;0.55;0.55;;;;;;;5.77;100.00;99423.91;4627046;28;22122;-57
2021/12/08 10:07:45;;;;;;;1.45;1.13;;;;;;;5.84;100.00;99467.03;4697646;28;22607;-58
2021/12/08 10:10:15;;;;;;;0.30;0.30;;;;;;;5.82;100.00;99468.75;4677947;28;20038;-56
2021/12/08 10:12:40;;;;;;;1.20;0.68;;;;;;;5.81;100.00;99472.25;4636917;28;20034;-57
2021/12/08 10:15:09;;;;;;;6.28;1.15;;;;;;;5.76;100.00;99458.47;4644328;28;20040;-58
2021/12/08 10:17:34;;;;;;;2.20;0.70;;;;;;;5.74;100.00;99480.94;4676091;22;20903;-57
2021/12/08 10:20:10;;;;;;;0.70;0.70;;;;;;;5.75;100.00;99456.75;4624178;28;20034;-55
2021/12/08 10:22:36;;;;;;;0.70;0.70;;;;;;;5.72;100.00;99462.84;4634053;28;20734;-59
2021/12/08 10:25:17;;;;;;;3.90;0.80;;;;;;;5.68;100.00;99472.38;4665159;28;20209;-58
2021/12/08 10:28:11;;;;;;;0.43;0.35;;;;;;;5.80;100.00;99486.09;4510415;28;20759;-54
2021/12/08 10:30:51;;;;;;;7.03;0.80;;;;;;;5.85;100.00;99479.94;4533962;28;20062;-58
2021/12/08 10:33:37;;;;;;;;;;;;;;;5.99;100.00;99487.63;4537302;28;20054;-58
2021/12/08 10:36:19;;;;;;;1.20;0.93;;;;;;;5.97;100.00;99468.66;4666932;28;20055;-60
2021/12/08 10:38:44;;;;;;;0.43;0.40;;;;;;;6.18;100.00;99485.66;4638001;28;20039;-56
2021/12/08 10:41:10;;;;;;;1.42;0.95;;;;;;;6.08;100.00;99471.97;4722266;28;21304;-59
2021/12/08 10:43:35;;;;;;;1.00;0.95;;;;;;;6.09;100.00;99484.06;4727085;28;20169;-58
2021/12/08 10:46:05;;;;;;;14.10;1.35;;;;;;;6.08;100.00;99472.81;4726508;28;20207;-59
2021/12/08 10:48:37;;;;;;;0.40;0.40;;;;;;;6.03;100.00;99489.31;4646538;28;20511;-56
2021/12/08 10:56:56;;;;;;;1.75;1.08;;;;;;;6.40;100.00;99480.22;4570379;28;20047;-58
2021/12/08 10:59:25;;;;;;;10.95;1.35;;;;;;;6.55;100.00;99464.44;4652901;28;20045;-58
2021/12/08 11:01:52;;;;;;;3.60;1.30;;;;;;;6.42;100.00;99444.72;4647974;28;20051;-57
2021/12/08 11:04:20;;;;;;;0.77;0.77;;;;;;;6.55;100.00;99459.22;4633440;28;21273;-56
2021/12/08 11:06:47;;;;;;;5.00;1.67;;;;;;;6.59;100.00;99463.50;4627302;28;20055;-59
2021/12/08 11:09:19;;;;;;;4.30;0.98;;;;;;;6.77;100.00;99458.94;4635438;28;24391;-60
2021/12/08 11:11:46;;;;;;;3.30;1.20;;;;;;;6.82;100.00;99462.28;4574131;28;22491;-59
2021/12/08 11:14:14;;;;;;;0.55;0.50;;;;;;;6.86;100.00;99448.38;4628475;28;20057;-57
2021/12/08 11:16:42;;;;;;;6.78;1.40;;;;;;;7.18;100.00;99466.91;4688172;28;22269;-59
2021/12/08 11:19:21;;;;;;;1.38;1.08;;;;;;;7.43;100.00;99463.03;4711382;28;21829;-60
2021/12/08 11:21:50;;;;;;;1.75;0.90;;;;;;;7.51;100.00;99448.16;4749975;28;20874;-59
2021/12/08 11:24:31;;;;;;;0.47;0.47;;;;;;;8.13;100.00;99464.28;4734382;28;21520;-58
2021/12/08 11:26:57;;;;;;;2.38;0.50;;;;;;;7.82;100.00;99465.78;4706594;28;20759;-59
2021/12/08 11:29:28;;;;;;;1.48;0.47;;;;;;;7.38;100.00;99463.97;4718104;28;21291;-57
2021/12/08 11:31:56;;;;;;;0.80;0.47;;;;;;;6.99;100.00;99470.69;4685681;28;20030;-58
2021/12/08 11:34:25;;;;;;;2.03;1.10;;;;;;;7.06;100.00;99467.13;4643524;28;22089;-58
2021/12/08 11:36:56;;;;;;;1.85;0.80;;;;;;;7.75;100.00;99470.25;4578921;28;21176;-58
2021/12/08 11:39:52;;;;;;;1.33;1.23;;;;;;;8.16;100.00;99477.22;4613876;28;20545;-58
2021/12/08 11:42:24;;;;;;;3.13;0.60;;;;;;;8.40;100.00;99470.72;4522260;29;20073;-55
2021/12/08 11:44:54;;;;;;;1.25;1.05;;;;;;;8.74;100.00;99476.03;4608783;29;20766;-57
2021/12/08 11:47:27;;;;;;;2.05;0.75;;;;;;;8.37;100.00;99484.63;4611757;29;20043;-60
2021/12/08 11:49:56;;;;;;;2.20;1.02;;;;;;;8.09;100.00;99465.22;4613307;29;20131;-58
2021/12/08 11:52:32;;;;;;;4.15;1.42;;;;;;;7.93;100.00;99476.81;4588631;29;20798;-57
2021/12/08 11:55:03;;;;;;;1.63;0.95;;;;;;;7.70;100.00;99472.06;4595370;29;22344;-59
2021/12/08 11:57:34;;;;;;;2.30;1.20;;;;;;;8.00;100.00;99478.44;4608349;29;20830;-59
2021/12/08 12:00:11;;;;;;;;;;;;;;;8.26;100.00;99478.75;4609835;29;20043;-58
2021/12/08 12:02:42;;;;;;;0.80;0.80;;;;;;;9.09;100.00;99473.44;4644589;29;20054;-59
2021/12/08 12:05:15;;;;;;;1.45;0.75;;;;;;;9.11;100.00;99461.25;4616906;29;21045;-60
2021/12/08 12:07:40;;;;;;;0.95;0.93;;;;;;;8.96;100.00;99466.81;4661698;28;21356;-58
2021/12/08 12:10:09;;;;;;;1.00;0.98;;;;;;;9.02;100.00;99471.91;4652993;28;20034;-58
2021/12/08 12:12:37;;;;;;;1.63;0.90;;;;;;;9.55;100.00;99456.69;4666287;28;20075;-58
2021/12/08 12:15:04;;;;;;;2.05;1.13;;;;;;;9.68;100.00;99453.69;4717873;28;20269;-59
2021/12/08 12:17:30;;;;;;;1.48;0.85;;;;;;;9.35;100.00;99478.03;4718170;28;20738;-57
2021/12/08 12:20:08;;;;;;;0.80;0.60;;;;;;;9.07;100.00;99467.44;4728846;28;20034;-57
2021/12/08 12:23:08;;;;;;;6.18;0.63;;;;;;;9.16;100.00;99495.00;4721246;28;21011;-59
2021/12/08 12:25:42;;;;;;;1.70;0.90;;;;;;;8.67;100.00;99475.31;4761301;28;22713;-55
2021/12/08 12:28:36;;;;;;;3.20;0.57;;;;;;;8.69;100.00;99483.06;4776605;28;20535;-58